CheckWX is a tool to help pilots better visualize weather data.  It is not intended as a substitute for an official pre-flight weather briefing.

11:13:19 UTC

KCRX METAR
Roscoe Turner Airport
Corinth, Mississippi, USA
Current

18 mins ago

KCRX 151055Z AUTO 00000KT 10SM FEW037 BKN110 14/13 A3004 RMK AO2
Observed
Oct-15 @ 10:55 UTC
Visibility
10 SM
Flight Rules
VFR
Cloud Levels
  • Few at 3,700' AGL
  • Broken at 11,000' AGL
Temperature
14°C / 57°F
Dewpoint
13°C / 55°F
Humidity
94%
Altimeter
30.04" Hg
Pressure
1017.32 hPa
Previous

38 mins ago

KCRX 151035Z AUTO 00000KT 10SM FEW033 FEW042 BKN110 14/13 A3004 RMK AO2
Observed
Oct-15 @ 10:35 UTC
Visibility
10 SM
Flight Rules
VFR
Cloud Levels
  • Few at 3,300' AGL
  • Few at 4,200' AGL
  • Broken at 11,000' AGL
Temperature
14°C / 57°F
Dewpoint
13°C / 55°F
Humidity
94%
Altimeter
30.04" Hg
Pressure
1017.32 hPa
Previous

58 mins ago

KCRX 151015Z AUTO 00000KT 10SM FEW033 FEW043 SCT110 14/13 A3004 RMK AO2
Observed
Oct-15 @ 10:15 UTC
Visibility
10 SM
Flight Rules
VFR
Cloud Levels
  • Few at 3,300' AGL
  • Few at 4,300' AGL
  • Scattered at 11,000' AGL
Temperature
14°C / 57°F
Dewpoint
13°C / 55°F
Humidity
94%
Altimeter
30.04" Hg
Pressure
1017.32 hPa